Time;durP1;ratioP1;P1;durP2;ratioP2;P2;SDS_P1;SDS_P2;PMS_P1;PMS_P2;Temp;Humidity;BMP_temperature;BMP_pressure;BME280_temperature;BME280_humidity;BME280_pressure;Samples;Min_cycle;Max_cycle;Signal;HPM_P1;HPM_P2
2023/01/29 05:30:19;;;;;;;8.50;3.75;;;5.80;67.90;;;;;;5907619;23;20022;-80
2023/01/29 05:32:45;;;;;;;7.88;3.92;;;5.80;68.20;;;;;;4934411;29;20035;-80
2023/01/29 05:35:10;;;;;;;5.70;3.95;;;5.80;67.80;;;;;;4937180;29;20034;-81
2023/01/29 05:37:36;;;;;;;3.70;3.15;;;5.80;67.40;;;;;;4922034;29;20168;-80
2023/01/29 05:40:02;;;;;;;4.88;3.13;;;5.80;68.10;;;;;;4921535;29;20038;-81
2023/01/29 05:42:28;;;;;;;5.20;3.45;;;5.80;68.00;;;;;;4931391;29;20036;-80
2023/01/29 05:44:53;;;;;;;4.32;3.42;;;5.80;68.10;;;;;;4940173;29;20127;-80
2023/01/29 05:47:20;;;;;;;6.82;3.38;;;5.80;67.80;;;;;;4921949;29;20059;-80
2023/01/29 05:49:45;;;;;;;6.47;3.58;;;5.80;67.90;;;;;;4905195;29;20515;-81
2023/01/29 05:52:11;;;;;;;4.63;3.60;;;5.80;67.60;;;;;;4940489;29;20094;-80
2023/01/29 05:54:37;;;;;;;5.95;3.22;;;5.80;67.70;;;;;;4923575;29;20522;-80
2023/01/29 05:57:02;;;;;;;8.40;4.30;;;5.80;67.20;;;;;;4939800;29;20463;-80
2023/01/29 05:59:30;;;;;;;4.97;3.70;;;5.80;67.80;;;;;;4919955;29;20044;-80
2023/01/29 06:01:56;;;;;;;6.63;3.47;;;5.80;68.70;;;;;;4932433;29;20046;-80
2023/01/29 06:04:22;;;;;;;5.05;3.78;;;5.80;69.00;;;;;;4940119;29;20024;-80
2023/01/29 06:06:48;;;;;;;8.00;3.60;;;5.80;68.50;;;;;;4922926;29;20031;-80
2023/01/29 06:09:13;;;;;;;8.98;3.65;;;5.80;68.30;;;;;;4929535;29;20043;-80
2023/01/29 06:11:39;;;;;;;5.93;3.85;;;5.80;68.30;;;;;;4936584;29;20035;-80
2023/01/29 06:14:05;;;;;;;7.65;3.92;;;5.80;68.60;;;;;;4921602;29;20115;-80
2023/01/29 06:16:30;;;;;;;3.17;2.88;;;5.80;68.30;;;;;;4935017;29;20127;-80
2023/01/29 06:18:56;;;;;;;5.40;3.60;;;5.80;68.60;;;;;;4939422;29;20024;-80
2023/01/29 06:21:22;;;;;;;8.18;4.25;;;5.70;69.40;;;;;;4937044;29;20074;-80
2023/01/29 06:23:47;;;;;;;6.32;3.80;;;5.70;69.30;;;;;;4922855;29;20024;-80
2023/01/29 06:26:14;;;;;;;8.90;4.10;;;5.70;69.30;;;;;;4939020;29;20083;-80
2023/01/29 06:28:41;;;;;;;8.75;3.72;;;5.70;69.30;;;;;;4939563;29;20035;-80
2023/01/29 06:31:07;;;;;;;5.13;4.07;;;5.70;69.50;;;;;;4918228;29;20134;-80
2023/01/29 06:33:33;;;;;;;8.77;3.83;;;5.70;69.20;;;;;;4935460;29;20028;-80
2023/01/29 06:36:02;;;;;;;5.78;3.75;;;5.70;69.80;;;;;;4921139;29;20095;-80
2023/01/29 06:38:28;;;;;;;7.25;4.80;;;5.80;69.30;;;;;;4939760;29;20034;-80
2023/01/29 06:40:54;;;;;;;5.38;4.13;;;5.80;69.10;;;;;;4924170;29;20035;-80
2023/01/29 06:43:20;;;;;;;6.85;3.63;;;5.80;69.10;;;;;;4939179;29;20027;-80
2023/01/29 06:45:51;;;;;;;5.63;3.22;;;5.80;69.10;;;;;;4938934;29;20136;-79
2023/01/29 06:48:17;;;;;;;4.85;3.83;;;5.80;69.60;;;;;;4902216;29;20067;-80
2023/01/29 06:50:43;;;;;;;6.05;4.03;;;5.70;69.70;;;;;;4926290;29;20031;-80
2023/01/29 06:53:09;;;;;;;5.95;3.72;;;5.70;70.30;;;;;;4931551;29;20100;-80
2023/01/29 06:55:34;;;;;;;11.10;4.78;;;5.70;70.60;;;;;;4930991;29;20035;-80
2023/01/29 06:58:04;;;;;;;6.50;4.53;;;5.70;69.90;;;;;;4925160;29;20032;-80
2023/01/29 07:00:30;;;;;;;7.22;5.57;;;5.80;69.80;;;;;;4906215;29;20510;-80
2023/01/29 07:02:56;;;;;;;7.47;5.78;;;5.80;69.80;;;;;;4938680;29;20059;-80
2023/01/29 07:05:21;;;;;;;7.70;5.93;;;5.70;69.70;;;;;;4938473;29;20155;-80
2023/01/29 07:07:47;;;;;;;8.20;5.38;;;5.70;70.20;;;;;;4922304;29;20154;-80
2023/01/29 07:10:12;;;;;;;9.80;6.03;;;5.70;70.30;;;;;;4935855;29;20446;-80
2023/01/29 07:12:38;;;;;;;10.73;6.32;;;5.70;70.30;;;;;;4939206;29;20035;-79
2023/01/29 07:15:04;;;;;;;10.07;5.78;;;5.70;70.60;;;;;;4938821;29;20059;-80
2023/01/29 07:17:30;;;;;;;9.45;6.78;;;5.70;70.80;;;;;;4932523;29;20084;-80
2023/01/29 07:19:55;;;;;;;10.55;6.60;;;5.70;71.40;;;;;;4920376;29;20024;-80
2023/01/29 07:22:21;;;;;;;10.88;7.07;;;5.70;70.60;;;;;;4936655;29;20028;-80
2023/01/29 07:24:47;;;;;;;13.57;7.82;;;5.60;70.60;;;;;;4932440;29;20095;-79
2023/01/29 07:27:13;;;;;;;8.65;7.07;;;5.60;69.40;;;;;;4935036;29;20031;-79
2023/01/29 07:29:38;;;;;;;9.40;6.78;;;5.60;69.50;;;;;;4938549;29;20039;-80
2023/01/29 07:32:04;;;;;;;11.32;6.63;;;5.70;69.80;;;;;;4930350;29;20135;-84
2023/01/29 07:34:30;;;;;;;10.02;7.13;;;5.70;70.00;;;;;;4906760;29;20043;-79
2023/01/29 07:36:56;;;;;;;9.52;6.45;;;5.80;69.90;;;;;;4909612;29;20032;-86
2023/01/29 07:39:22;;;;;;;10.35;6.38;;;5.80;70.30;;;;;;4916126;29;20030;-84
2023/01/29 07:41:48;;;;;;;12.52;7.05;;;5.80;70.50;;;;;;4938330;29;20031;-88
2023/01/29 07:44:13;;;;;;;9.23;5.50;;;5.80;70.30;;;;;;4938689;29;20024;-87
2023/01/29 07:46:39;;;;;;;10.30;5.70;;;5.70;70.10;;;;;;4937559;29;20403;-86
2023/01/29 07:49:05;;;;;;;14.25;7.03;;;5.80;69.90;;;;;;4904009;29;20563;-85
2023/01/29 07:51:30;;;;;;;7.40;4.60;;;5.80;70.10;;;;;;4928560;29;20059;-85
2023/01/29 07:53:56;;;;;;;7.65;5.28;;;5.80;70.40;;;;;;4924628;29;20459;-79
2023/01/29 07:56:22;;;;;;;10.05;5.28;;;5.70;70.10;;;;;;4936019;29;20031;-82
2023/01/29 07:58:47;;;;;;;9.27;4.95;;;5.80;69.90;;;;;;4936316;29;20039;-83
2023/01/29 08:01:13;;;;;;;8.80;5.53;;;5.80;70.00;;;;;;4908000;29;20499;-80
2023/01/29 08:03:49;;;;;;;11.32;7.05;;;5.70;69.90;;;;;;4921173;29;20038;-79
2023/01/29 08:06:14;;;;;;;10.98;5.97;;;5.70;69.70;;;;;;4938072;29;20071;-75
2023/01/29 08:08:40;;;;;;;13.57;6.38;;;5.70;70.10;;;;;;4935899;29;20060;-79
2023/01/29 08:11:05;;;;;;;8.63;5.63;;;5.80;70.10;;;;;;4927466;29;20036;-82
2023/01/29 08:13:32;;;;;;;8.52;6.57;;;5.80;70.50;;;;;;4920888;29;20059;-82
2023/01/29 08:15:59;;;;;;;11.07;6.13;;;5.80;69.70;;;;;;4919724;29;20040;-86
2023/01/29 08:18:25;;;;;;;10.88;6.35;;;5.80;69.50;;;;;;4919165;29;20039;-84
2023/01/29 08:20:51;;;;;;;11.52;5.97;;;5.90;69.20;;;;;;4910605;29;20032;-82
2023/01/29 08:23:17;;;;;;;9.63;5.78;;;5.90;68.70;;;;;;4923785;29;20032;-81
2023/01/29 08:25:42;;;;;;;9.25;5.95;;;5.80;68.10;;;;;;4937808;29;20024;-82
2023/01/29 08:28:10;;;;;;;8.93;5.65;;;5.80;68.30;;;;;;4937659;29;20039;-83
2023/01/29 08:30:36;;;;;;;7.93;5.18;;;5.80;68.30;;;;;;4916832;29;20195;-80
2023/01/29 08:33:03;;;;;;;7.20;5.53;;;5.90;68.20;;;;;;4919262;29;20036;-77
2023/01/29 08:35:29;;;;;;;8.82;6.18;;;5.90;68.30;;;;;;4916679;29;20051;-82
2023/01/29 08:37:58;;;;;;;13.30;7.20;;;5.90;67.90;;;;;;4926321;29;20088;-81
2023/01/29 08:40:24;;;;;;;8.07;5.13;;;6.00;68.20;;;;;;4921735;29;20027;-80
2023/01/29 08:42:50;;;;;;;15.13;5.78;;;6.00;68.00;;;;;;4936239;29;20022;-79
2023/01/29 08:45:16;;;;;;;9.68;5.57;;;6.10;68.00;;;;;;4933716;29;20036;-82
2023/01/29 08:47:46;;;;;;;5.80;5.18;;;6.10;68.10;;;;;;4937057;29;20027;-82
2023/01/29 08:50:12;;;;;;;;;;;6.10;68.20;;;;;;4921064;29;20079;-81
2023/01/29 08:52:37;;;;;;;7.20;5.20;;;6.20;68.80;;;;;;4918025;29;19910;-80
2023/01/29 08:55:03;;;;;;;9.25;5.55;;;6.20;68.40;;;;;;4936896;29;20579;-81
2023/01/29 08:57:29;;;;;;;5.18;4.45;;;6.20;68.60;;;;;;4914525;29;20095;-79
2023/01/29 08:59:54;;;;;;;13.93;5.72;;;6.20;68.60;;;;;;4935579;29;20031;-80
2023/01/29 09:02:20;;;;;;;9.50;6.43;;;6.20;68.40;;;;;;4918777;29;20091;-80
2023/01/29 09:04:46;;;;;;;9.93;5.80;;;6.20;68.50;;;;;;4918487;29;20032;-81
2023/01/29 09:07:11;;;;;;;7.18;5.47;;;6.20;68.80;;;;;;4916694;29;20067;-81
2023/01/29 09:09:37;;;;;;;7.13;5.50;;;6.30;68.50;;;;;;4934863;29;20031;-81
2023/01/29 09:12:03;;;;;;;9.52;6.32;;;6.30;68.60;;;;;;4940233;29;20605;-81
2023/01/29 09:14:28;;;;;;;9.00;6.70;;;6.30;68.50;;;;;;4940231;29;20390;-82
2023/01/29 09:16:54;;;;;;;10.82;6.75;;;6.30;68.40;;;;;;4939995;29;20042;-81
2023/01/29 09:19:20;;;;;;;10.43;5.82;;;6.40;68.20;;;;;;4938339;29;20596;-80
2023/01/29 09:21:45;;;;;;;12.95;6.88;;;6.40;68.60;;;;;;4939013;29;20444;-80
2023/01/29 09:24:11;;;;;;;11.10;6.47;;;6.40;68.50;;;;;;4921345;29;20506;-81
2023/01/29 09:26:38;;;;;;;13.32;6.25;;;6.40;68.20;;;;;;4937365;29;20099;-81
2023/01/29 09:29:05;;;;;;;11.07;7.30;;;6.30;68.40;;;;;;4921447;29;20031;-83
2023/01/29 09:31:30;;;;;;;9.77;6.55;;;6.30;68.70;;;;;;4922350;29;20443;-82
2023/01/29 09:33:56;;;;;;;12.85;6.43;;;6.30;68.50;;;;;;4937244;29;20136;-83
2023/01/29 09:36:21;;;;;;;6.70;4.97;;;6.30;68.20;;;;;;4939844;29;20036;-83
2023/01/29 09:38:47;;;;;;;9.77;6.78;;;6.40;68.10;;;;;;4922200;29;20028;-83
2023/01/29 09:41:27;;;;;;;7.85;5.18;;;6.50;67.40;;;;;;4938107;29;20102;-83
2023/01/29 09:44:02;;;;;;;11.68;6.28;;;6.50;67.20;;;;;;4920542;29;20028;-83
2023/01/29 09:46:47;;;;;;;11.45;6.07;;;6.50;67.30;;;;;;4939429;29;20054;-83
2023/01/29 09:49:36;;;;;;;10.25;5.60;;;6.50;67.30;;;;;;4935752;29;20058;-83
2023/01/29 09:52:10;;;;;;;13.50;5.85;;;6.50;67.60;;;;;;4920105;29;20095;-81
2023/01/29 09:55:08;;;;;;;10.57;6.82;;;6.60;67.30;;;;;;4939146;29;20707;-81
2023/01/29 09:57:48;;;;;;;8.15;5.82;;;6.60;66.80;;;;;;4921634;29;20024;-81
2023/01/29 10:00:23;;;;;;;7.82;5.75;;;6.60;66.60;;;;;;4939319;29;20031;-81
2023/01/29 10:03:10;;;;;;;9.52;6.03;;;6.70;66.90;;;;;;4922399;29;20032;-82
2023/01/29 10:06:06;;;;;;;8.23;4.90;;;6.70;66.80;;;;;;4921104;29;20024;-81
2023/01/29 10:09:04;;;;;;;9.63;5.97;;;6.70;66.40;;;;;;4920835;29;20027;-79
2023/01/29 10:11:38;;;;;;;9.85;6.05;;;6.60;66.50;;;;;;4935876;29;20573;-81
2023/01/29 10:14:41;;;;;;;9.40;5.82;;;6.70;66.60;;;;;;4921525;29;20503;-81
2023/01/29 10:17:29;;;;;;;15.10;6.85;;;6.70;66.40;;;;;;4920968;29;20036;-82
2023/01/29 10:20:16;;;;;;;12.48;6.95;;;6.70;66.30;;;;;;4937050;29;20032;-82
2023/01/29 10:22:45;;;;;;;13.95;7.45;;;6.80;66.20;;;;;;4937653;29;20027;-82
2023/01/29 10:25:18;;;;;;;7.75;5.57;;;6.80;66.00;;;;;;4937979;29;20024;-82
2023/01/29 10:27:51;;;;;;;11.77;6.70;;;6.70;66.10;;;;;;4933202;29;20036;-83
2023/01/29 10:30:39;;;;;;;12.68;6.43;;;6.80;65.90;;;;;;4937511;29;20086;-83
2023/01/29 10:33:11;;;;;;;9.63;6.30;;;6.80;66.00;;;;;;4938363;29;20031;-83
2023/01/29 10:35:42;;;;;;;10.43;7.05;;;6.90;65.70;;;;;;4922124;29;20027;-82
2023/01/29 10:38:18;;;;;;;8.70;5.95;;;6.80;65.00;;;;;;4938452;29;20035;-82
2023/01/29 10:41:10;;;;;;;9.90;6.07;;;6.90;64.80;;;;;;4916987;29;20087;-83
2023/01/29 10:44:02;;;;;;;8.10;5.68;;;6.80;64.70;;;;;;4937335;29;20058;-82
2023/01/29 10:46:48;;;;;;;7.40;5.25;;;6.90;64.60;;;;;;4937622;29;20067;-81
2023/01/29 10:49:32;;;;;;;10.05;5.28;;;7.00;64.90;;;;;;4934365;29;20036;-83
2023/01/29 10:52:07;;;;;;;6.32;4.90;;;7.00;65.20;;;;;;4919204;29;20035;-80
2023/01/29 10:54:38;;;;;;;8.55;5.75;;;7.00;64.80;;;;;;4934312;29;20039;-80
2023/01/29 10:57:17;;;;;;;11.63;6.18;;;7.00;65.20;;;;;;4936809;29;20027;-83
2023/01/29 10:59:51;;;;;;;9.88;5.55;;;7.00;64.80;;;;;;4933816;29;20563;-79
2023/01/29 11:02:20;;;;;;;9.68;5.80;;;7.00;64.60;;;;;;4916983;29;20036;-77
2023/01/29 11:04:46;;;;;;;9.55;5.75;;;7.00;64.30;;;;;;4920277;29;20483;-83
2023/01/29 11:07:15;;;;;;;8.60;6.00;;;7.00;64.50;;;;;;4918403;29;20102;-82
2023/01/29 11:10:01;;;;;;;9.70;5.55;;;7.10;64.70;;;;;;4935591;29;20043;-79
2023/01/29 11:12:32;;;;;;;9.63;5.78;;;7.00;64.30;;;;;;4920636;29;20119;-76
2023/01/29 11:14:57;;;;;;;;;;;7.10;64.30;;;;;;4912584;29;20043;-79
2023/01/29 11:17:24;;;;;;;9.68;5.75;;;7.10;64.30;;;;;;4920336;29;20014;-85
2023/01/29 11:19:52;;;;;;;7.95;5.38;;;7.10;64.50;;;;;;4916567;29;20368;-79
2023/01/29 11:22:28;;;;;;;7.22;5.78;;;7.20;64.40;;;;;;4937633;29;20522;-83
2023/01/29 11:25:06;;;;;;;9.27;6.63;;;7.30;64.50;;;;;;4918393;29;20024;-86
2023/01/29 11:27:42;;;;;;;8.98;6.57;;;7.30;64.40;;;;;;4927818;29;20043;-85
2023/01/29 11:30:18;;;;;;;13.30;6.95;;;7.30;64.10;;;;;;4919529;29;20126;-79
2023/01/29 11:32:48;;;;;;;10.82;6.95;;;7.30;64.10;;;;;;4936711;29;20028;-81
2023/01/29 11:35:14;;;;;;;;;;;7.40;64.10;;;;;;4931272;29;20036;-82
2023/01/29 11:37:42;;;;;;;12.27;6.45;;;7.40;63.90;;;;;;4920564;29;19929;-84
2023/01/29 11:40:17;;;;;;;8.50;4.93;;;7.50;64.00;;;;;;4937094;29;20485;-81
2023/01/29 11:42:47;;;;;;;10.20;6.35;;;7.50;64.10;;;;;;4936510;29;20027;-79
2023/01/29 11:45:26;;;;;;;12.75;8.02;;;7.50;64.50;;;;;;4931055;29;20023;-84
2023/01/29 11:47:53;;;;;;;12.63;6.93;;;7.60;64.40;;;;;;4914320;29;20032;-81
2023/01/29 11:50:28;;;;;;;12.68;5.75;;;7.50;64.80;;;;;;4936572;29;20028;-79
2023/01/29 11:52:54;;;;;;;9.82;5.95;;;7.70;64.30;;;;;;4930624;29;20080;-77
2023/01/29 11:55:26;;;;;;;13.68;7.47;;;7.70;64.10;;;;;;4915253;29;20511;-77
2023/01/29 11:58:14;;;;;;;8.82;6.15;;;7.70;64.00;;;;;;4930737;29;20066;-78
2023/01/29 12:00:44;;;;;;;9.10;6.13;;;7.70;63.90;;;;;;4937293;29;20414;-81
2023/01/29 12:03:15;;;;;;;13.23;7.57;;;7.70;63.30;;;;;;4916635;29;20105;-85
2023/01/29 12:06:00;;;;;;;11.48;6.30;;;7.70;63.40;;;;;;4902767;29;20063;-84
2023/01/29 12:08:31;;;;;;;9.65;6.32;;;7.70;62.90;;;;;;4924572;29;20099;-83
2023/01/29 12:11:12;;;;;;;12.95;6.93;;;7.80;63.50;;;;;;4926419;29;20024;-79
2023/01/29 12:13:39;;;;;;;11.23;6.20;;;7.80;63.60;;;;;;4938701;29;20115;-78
2023/01/29 12:16:18;;;;;;;14.18;7.35;;;7.80;63.30;;;;;;4918829;29;20038;-80
2023/01/29 12:19:12;;;;;;;7.05;5.47;;;7.80;63.70;;;;;;4912107;29;20027;-79
2023/01/29 12:21:56;;;;;;;13.70;7.70;;;7.90;63.80;;;;;;4928783;29;20098;-79
2023/01/29 12:24:34;;;;;;;12.35;7.47;;;7.90;63.50;;;;;;4937704;29;20036;-77
2023/01/29 12:27:30;;;;;;;14.90;7.43;;;7.90;62.60;;;;;;4932267;29;20040;-75
2023/01/29 12:30:16;;;;;;;8.95;7.07;;;8.00;62.80;;;;;;4924638;29;20044;-78
2023/01/29 12:32:58;;;;;;;10.32;6.40;;;8.00;62.80;;;;;;4919065;29;20470;-77
2023/01/29 12:35:42;;;;;;;12.55;7.22;;;8.00;62.80;;;;;;4919270;29;20118;-78
2023/01/29 12:38:16;;;;;;;10.32;6.60;;;8.00;63.10;;;;;;4937412;29;20131;-81
2023/01/29 12:40:54;;;;;;;12.02;7.03;;;8.00;62.70;;;;;;4935724;29;20507;-80
2023/01/29 12:43:41;;;;;;;12.52;7.70;;;8.00;62.70;;;;;;4936182;29;20051;-78
2023/01/29 12:46:14;;;;;;;11.45;7.90;;;8.10;62.70;;;;;;4939385;29;20032;-76
2023/01/29 12:48:42;;;;;;;9.45;6.50;;;8.10;62.40;;;;;;4923098;29;20047;-80
2023/01/29 12:51:16;;;;;;;12.65;7.40;;;8.10;62.90;;;;;;4921443;29;20028;-79
2023/01/29 12:54:13;;;;;;;11.40;8.00;;;8.20;62.90;;;;;;4928533;29;20917;-78
2023/01/29 12:56:45;;;;;;;13.85;7.70;;;8.20;63.20;;;;;;4929110;29;20691;-79
2023/01/29 12:59:35;;;;;;;13.77;7.50;;;8.20;62.80;;;;;;4935682;29;20082;-79
2023/01/29 13:02:14;;;;;;;13.63;7.93;;;8.20;62.80;;;;;;4935411;29;20495;-78
2023/01/29 13:04:51;;;;;;;10.82;7.57;;;8.20;62.60;;;;;;4938512;29;20746;-78
2023/01/29 13:07:23;;;;;;;14.35;8.13;;;8.20;63.10;;;;;;4937882;29;20110;-79
2023/01/29 13:09:58;;;;;;;18.25;10.57;;;8.20;63.10;;;;;;4933545;29;20034;-79
2023/01/29 13:12:25;;;;;;;14.00;8.18;;;8.20;62.90;;;;;;4918623;29;20042;-78
2023/01/29 13:14:59;;;;;;;12.48;6.55;;;8.30;63.20;;;;;;4921424;29;20500;-79
2023/01/29 13:17:35;;;;;;;10.30;7.05;;;8.30;62.90;;;;;;4917111;29;20027;-78
2023/01/29 13:20:10;;;;;;;14.25;9.15;;;8.30;62.80;;;;;;4937914;29;20034;-76
2023/01/29 13:22:39;;;;;;;16.83;10.23;;;8.30;63.00;;;;;;4922261;29;20083;-85
2023/01/29 13:25:10;;;;;;;15.27;9.60;;;8.20;62.30;;;;;;4937622;29;20048;-80
2023/01/29 13:27:36;;;;;;;13.05;8.07;;;8.30;62.60;;;;;;4937891;29;20118;-81
2023/01/29 13:30:02;;;;;;;11.05;7.72;;;8.30;62.80;;;;;;4939307;29;20083;-79
2023/01/29 13:32:30;;;;;;;13.30;8.52;;;8.30;62.90;;;;;;4920419;29;20067;-78
2023/01/29 13:35:05;;;;;;;13.27;8.70;;;8.30;62.30;;;;;;4938899;29;20031;-79
2023/01/29 13:37:36;;;;;;;15.20;9.35;;;8.30;62.60;;;;;;4937066;29;20066;-77
2023/01/29 13:40:05;;;;;;;13.05;8.38;;;8.30;63.00;;;;;;4936640;29;20024;-79
2023/01/29 13:42:41;;;;;;;15.80;8.50;;;8.30;63.20;;;;;;4937391;29;21284;-78
2023/01/29 13:45:16;;;;;;;14.68;7.68;;;8.20;62.70;;;;;;4939254;29;20016;-77
2023/01/29 13:47:42;;;;;;;13.13;8.02;;;8.20;63.60;;;;;;4936840;29;20466;-77
2023/01/29 13:50:17;;;;;;;13.63;7.97;;;8.30;63.60;;;;;;4939366;29;20024;-77
2023/01/29 13:52:55;;;;;;;18.23;9.68;;;8.20;63.70;;;;;;4936739;29;20031;-78
2023/01/29 13:55:32;;;;;;;17.60;9.85;;;8.20;62.70;;;;;;4918726;29;20024;-80
2023/01/29 13:58:02;;;;;;;15.95;8.68;;;8.20;63.50;;;;;;4934705;29;20395;-78
2023/01/29 14:00:34;;;;;;;16.35;8.82;;;8.20;63.50;;;;;;4936924;29;20726;-77
2023/01/29 14:03:00;;;;;;;13.20;7.93;;;8.20;63.50;;;;;;4939798;29;20078;-76
2023/01/29 14:05:28;;;;;;;11.90;7.55;;;8.20;62.90;;;;;;4939114;29;20020;-77
2023/01/29 14:07:58;;;;;;;11.95;7.90;;;8.20;63.60;;;;;;4918800;29;20495;-78
2023/01/29 14:10:25;;;;;;;11.88;7.45;;;8.20;63.90;;;;;;4936107;29;20115;-78
2023/01/29 14:13:16;;;;;;;17.20;8.40;;;8.10;63.70;;;;;;4939372;29;20032;-78
2023/01/29 14:15:43;;;;;;;16.40;9.15;;;8.10;63.90;;;;;;4926754;29;20410;-77
2023/01/29 14:18:19;;;;;;;11.13;7.90;;;8.10;63.70;;;;;;4933685;29;20036;-76
2023/01/29 14:20:59;;;;;;;13.93;7.97;;;8.10;64.10;;;;;;4936458;29;20110;-79
2023/01/29 14:23:34;;;;;;;14.48;8.05;;;8.20;64.20;;;;;;4939226;29;20032;-80
2023/01/29 14:26:03;;;;;;;13.90;7.80;;;8.20;64.10;;;;;;4937191;29;20088;-78
2023/01/29 14:28:31;;;;;;;15.45;10.10;;;8.20;64.30;;;;;;4921171;29;20028;-77
2023/01/29 14:30:57;;;;;;;20.42;10.43;;;8.20;64.60;;;;;;4937559;29;20063;-78
2023/01/29 14:33:36;;;;;;;14.48;9.13;;;8.20;64.30;;;;;;4937100;29;20400;-77
2023/01/29 14:36:11;;;;;;;17.87;8.63;;;8.30;64.50;;;;;;4937627;29;20055;-80
2023/01/29 14:38:38;;;;;;;18.63;9.20;;;8.30;64.70;;;;;;4936044;29;20422;-77
2023/01/29 14:41:20;;;;;;;17.10;9.23;;;8.20;64.30;;;;;;4935546;29;20035;-84
2023/01/29 14:43:46;;;;;;;16.45;9.70;;;8.20;64.60;;;;;;4936220;29;20550;-76
2023/01/29 14:46:34;;;;;;;15.23;8.43;;;8.20;64.90;;;;;;4936228;29;20086;-82
2023/01/29 14:49:00;;;;;;;14.63;10.20;;;8.20;65.30;;;;;;4930001;29;20031;-79
2023/01/29 14:51:31;;;;;;;13.68;7.78;;;8.20;65.20;;;;;;4930521;29;20040;-81
2023/01/29 14:54:03;;;;;;;15.70;9.63;;;8.20;65.00;;;;;;4936526;29;20019;-80
2023/01/29 14:56:34;;;;;;;15.02;9.13;;;8.10;65.50;;;;;;4936924;29;20028;-80
2023/01/29 14:59:27;;;;;;;17.38;8.32;;;8.10;65.50;;;;;;4938318;29;20031;-80
2023/01/29 15:02:04;;;;;;;17.13;8.63;;;8.10;66.20;;;;;;4926722;29;20138;-81
2023/01/29 15:04:47;;;;;;;17.77;10.80;;;8.20;65.60;;;;;;4897944;29;20027;-80
2023/01/29 15:07:26;;;;;;;19.13;10.23;;;8.10;65.50;;;;;;4921560;29;20611;-80
2023/01/29 15:10:08;;;;;;;16.15;9.00;;;8.10;65.70;;;;;;4927301;29;20027;-80
2023/01/29 15:12:48;;;;;;;14.77;8.20;;;8.00;65.90;;;;;;4929151;29;20028;-76
2023/01/29 15:15:23;;;;;;;19.55;10.02;;;8.00;66.20;;;;;;4937576;29;20036;-75
2023/01/29 15:18:02;;;;;;;14.07;8.45;;;8.00;66.00;;;;;;4917828;29;20031;-77
2023/01/29 15:20:33;;;;;;;13.98;9.30;;;8.00;66.10;;;;;;4936999;29;20510;-80
2023/01/29 15:23:01;;;;;;;16.13;9.25;;;8.00;66.20;;;;;;4936244;29;20443;-75
2023/01/29 15:25:32;;;;;;;16.50;8.90;;;8.00;66.50;;;;;;4937927;29;20015;-76
2023/01/29 15:27:58;;;;;;;15.60;7.65;;;8.00;66.20;;;;;;4920982;29;20039;-76
2023/01/29 15:30:33;;;;;;;19.27;11.07;;;8.00;66.10;;;;;;4919468;29;20055;-78
2023/01/29 15:33:01;;;;;;;10.65;6.07;;;8.00;66.30;;;;;;4928738;29;20090;-77
2023/01/29 15:35:28;;;;;;;17.58;9.40;;;8.00;66.40;;;;;;4921057;29;20028;-77
2023/01/29 15:38:18;;;;;;;13.23;7.90;;;8.00;66.10;;;;;;4926277;29;20044;-76
2023/01/29 15:40:57;;;;;;;10.85;7.70;;;7.90;66.60;;;;;;4913173;29;20039;-85
2023/01/29 15:43:45;;;;;;;14.95;8.60;;;8.00;66.70;;;;;;4934186;29;20031;-77
2023/01/29 15:46:17;;;;;;;16.90;8.50;;;8.00;66.80;;;;;;4918833;29;20028;-76
2023/01/29 15:48:44;;;;;;;15.40;9.25;;;7.90;66.70;;;;;;4937585;29;20030;-77
2023/01/29 15:51:16;;;;;;;16.85;8.82;;;7.90;66.80;;;;;;4935353;29;20028;-78
2023/01/29 15:53:54;;;;;;;18.58;10.13;;;7.90;67.20;;;;;;4920281;29;20151;-78
2023/01/29 15:56:35;;;;;;;15.20;9.05;;;7.90;67.10;;;;;;4936299;29;20070;-77
2023/01/29 15:59:04;;;;;;;15.68;8.70;;;7.90;67.10;;;;;;4934898;29;20395;-77
2023/01/29 16:01:31;;;;;;;19.23;9.70;;;7.90;67.10;;;;;;4931449;29;20071;-77
2023/01/29 16:04:01;;;;;;;17.27;8.57;;;7.90;67.30;;;;;;4936862;29;20055;-77
2023/01/29 16:06:35;;;;;;;15.80;9.88;;;7.90;67.20;;;;;;4912635;29;20394;-77
2023/01/29 16:09:03;;;;;;;16.55;9.90;;;7.90;67.20;;;;;;4937562;29;20031;-77
2023/01/29 16:11:29;;;;;;;19.05;11.05;;;7.80;66.70;;;;;;4914338;29;20028;-77
2023/01/29 16:13:56;;;;;;;20.40;9.65;;;7.80;67.20;;;;;;4936524;29;20053;-77
2023/01/29 16:16:26;;;;;;;14.82;8.77;;;7.80;67.30;;;;;;4936589;29;20406;-77
2023/01/29 16:18:53;;;;;;;16.33;9.52;;;7.80;67.60;;;;;;4934016;29;20032;-77
2023/01/29 16:21:39;;;;;;;18.77;10.75;;;7.80;67.30;;;;;;4921809;29;20032;-77
2023/01/29 16:24:08;;;;;;;21.48;10.55;;;7.70;67.40;;;;;;4934948;29;20036;-77
2023/01/29 16:26:37;;;;;;;19.75;9.75;;;7.80;67.40;;;;;;4939472;29;20020;-77
2023/01/29 16:29:09;;;;;;;19.50;9.95;;;7.70;67.20;;;;;;4939517;29;20032;-76
2023/01/29 16:31:36;;;;;;;20.42;10.75;;;7.80;67.20;;;;;;4936007;29;20031;-77
2023/01/29 16:34:15;;;;;;;27.77;12.52;;;7.70;67.30;;;;;;4940391;29;20059;-77
2023/01/29 16:36:45;;;;;;;31.17;16.30;;;7.70;67.70;;;;;;4937326;29;20035;-77
2023/01/29 16:39:19;;;;;;;30.38;14.55;;;7.70;67.50;;;;;;4938099;29;20039;-77
2023/01/29 16:41:48;;;;;;;24.23;14.32;;;7.70;67.90;;;;;;4939904;29;20059;-76
2023/01/29 16:44:14;;;;;;;22.15;12.68;;;7.70;68.00;;;;;;4918218;29;20024;-77
2023/01/29 16:46:50;;;;;;;22.58;13.65;;;7.70;68.10;;;;;;4923054;29;20398;-77
2023/01/29 16:49:25;;;;;;;20.15;11.80;;;7.70;68.20;;;;;;4938309;29;20039;-77
2023/01/29 16:51:52;;;;;;;20.42;11.95;;;7.70;68.40;;;;;;4937790;29;20038;-78
2023/01/29 16:54:22;;;;;;;22.88;12.07;;;7.70;68.30;;;;;;4934972;29;20580;-78
2023/01/29 16:56:52;;;;;;;27.33;13.63;;;7.70;68.40;;;;;;4938890;29;20096;-77
2023/01/29 16:59:25;;;;;;;22.55;13.23;;;7.70;68.30;;;;;;4936647;29;20440;-77
2023/01/29 17:01:55;;;;;;;23.85;13.40;;;7.70;68.40;;;;;;4917457;29;20063;-77
2023/01/29 17:04:21;;;;;;;22.52;10.77;;;7.70;68.50;;;;;;4937925;29;20446;-78
2023/01/29 17:06:53;;;;;;;22.42;12.52;;;7.60;68.40;;;;;;4939966;29;20039;-78
2023/01/29 17:09:40;;;;;;;23.35;12.80;;;7.60;68.60;;;;;;4922703;29;20494;-78
2023/01/29 17:12:15;;;;;;;27.20;14.15;;;7.60;68.80;;;;;;4935683;29;20031;-77
2023/01/29 17:14:55;;;;;;;21.23;11.68;;;7.60;68.60;;;;;;4914995;29;20059;-77
2023/01/29 17:17:36;;;;;;;17.08;10.85;;;7.50;69.00;;;;;;4937225;29;20038;-76
2023/01/29 17:20:12;;;;;;;18.30;10.63;;;7.60;69.10;;;;;;4919048;29;20039;-77
2023/01/29 17:22:38;;;;;;;17.15;9.68;;;7.60;69.10;;;;;;4940245;29;20132;-76
2023/01/29 17:25:04;;;;;;;19.70;10.98;;;7.60;69.00;;;;;;4919782;29;20056;-77
2023/01/29 17:27:30;;;;;;;23.52;11.25;;;7.60;69.20;;;;;;4929556;29;20031;-76
2023/01/29 17:29:56;;;;;;;23.02;11.07;;;7.60;69.10;;;;;;4936904;29;20567;-77
2023/01/29 17:32:31;;;;;;;18.83;10.35;;;7.60;69.00;;;;;;4934731;29;20052;-77
2023/01/29 17:34:57;;;;;;;22.52;12.10;;;7.60;69.10;;;;;;4921052;29;20032;-78
2023/01/29 17:37:23;;;;;;;18.88;11.23;;;7.60;69.10;;;;;;4935534;29;20104;-76
2023/01/29 17:39:49;;;;;;;17.48;7.63;;;7.60;69.10;;;;;;4934614;29;20035;-78
2023/01/29 17:42:15;;;;;;;18.33;11.77;;;7.60;69.30;;;;;;4934448;29;20079;-77
2023/01/29 17:44:42;;;;;;;21.27;11.10;;;7.60;69.10;;;;;;4937713;29;20510;-77
2023/01/29 17:47:16;;;;;;;19.73;10.13;;;7.60;69.30;;;;;;4939246;29;20035;-77
2023/01/29 17:49:42;;;;;;;21.60;11.75;;;7.60;69.40;;;;;;4937759;29;20059;-76
2023/01/29 17:52:08;;;;;;;20.05;11.70;;;7.60;69.40;;;;;;4939324;29;20387;-76
2023/01/29 17:54:34;;;;;;;22.63;11.40;;;7.60;69.40;;;;;;4918190;29;20027;-76
2023/01/29 17:57:00;;;;;;;22.13;10.02;;;7.60;69.40;;;;;;4921249;29;20044;-76
2023/01/29 17:59:31;;;;;;;21.92;9.73;;;7.60;69.40;;;;;;4938466;29;20030;-76
2023/01/29 18:01:57;;;;;;;19.45;10.10;;;7.60;69.30;;;;;;4931072;29;20031;-76
2023/01/29 18:04:23;;;;;;;18.67;11.48;;;7.60;69.50;;;;;;4938042;29;20028;-77
2023/01/29 18:06:50;;;;;;;21.42;9.63;;;7.60;69.30;;;;;;4926638;29;20349;-76
2023/01/29 18:09:19;;;;;;;20.83;10.73;;;7.60;69.40;;;;;;4929676;29;20032;-78
2023/01/29 18:11:48;;;;;;;24.60;13.10;;;7.60;69.50;;;;;;4918673;29;20062;-83
2023/01/29 18:14:14;;;;;;;23.40;11.77;;;7.50;69.60;;;;;;4920623;29;20023;-78
2023/01/29 18:16:42;;;;;;;19.00;10.20;;;7.50;69.60;;;;;;4915676;29;20411;-74
2023/01/29 18:19:22;;;;;;;18.85;11.25;;;7.50;69.70;;;;;;4930630;29;20400;-75
2023/01/29 18:21:48;;;;;;;19.98;11.48;;;7.50;69.70;;;;;;4920244;29;20040;-78
2023/01/29 18:24:14;;;;;;;21.08;11.85;;;7.50;69.50;;;;;;4932880;29;20061;-79
2023/01/29 18:26:40;;;;;;;22.58;11.90;;;7.50;69.60;;;;;;4919016;29;20059;-77
2023/01/29 18:29:08;;;;;;;14.93;8.23;;;7.50;69.50;;;;;;4938523;29;20036;-76
2023/01/29 18:31:34;;;;;;;19.58;11.25;;;7.20;70.70;;;;;;4937287;29;20086;-85
2023/01/29 18:33:59;;;;;;;22.58;11.98;;;7.20;71.00;;;;;;4937869;29;20046;-75
2023/01/29 18:36:25;;;;;;;22.88;11.90;;;7.20;70.80;;;;;;4933460;29;20036;-77
2023/01/29 18:38:51;;;;;;;21.92;12.40;;;7.30;70.60;;;;;;4933502;29;20028;-77
2023/01/29 18:41:17;;;;;;;22.60;11.52;;;7.30;70.50;;;;;;4940160;29;20024;-76